createdAt,value
2022-10-12T00:01:16.249Z,60.15
2022-10-12T00:03:42.488Z,53.95
2022-10-12T00:06:08.691Z,55.92
2022-10-12T00:08:34.887Z,54.05
2022-10-12T00:11:01.176Z,55.42
2022-10-12T00:13:27.449Z,55.83
2022-10-12T00:15:53.690Z,59.33
2022-10-12T00:18:19.941Z,54.40
2022-10-12T00:20:46.129Z,59.47
2022-10-12T00:23:12.315Z,54.08
2022-10-12T00:25:38.573Z,58.28
2022-10-12T00:28:04.781Z,59.75
2022-10-12T00:30:31.035Z,59.17
2022-10-12T00:32:57.377Z,56.70
2022-10-12T00:35:23.564Z,48.80
2022-10-12T00:37:49.834Z,57.20
2022-10-12T00:40:16.017Z,55.63
2022-10-12T00:42:42.200Z,61.63
2022-10-12T00:45:08.378Z,60.33
2022-10-12T00:47:34.698Z,64.60
2022-10-12T00:50:00.997Z,62.63
2022-10-12T00:52:27.186Z,57.55
2022-10-12T00:54:53.381Z,56.42
2022-10-12T00:57:19.755Z,57.33
2022-10-12T00:59:46.007Z,60.13
2022-10-12T01:02:12.198Z,62.40
2022-10-12T01:04:38.370Z,57.53
2022-10-12T01:07:04.575Z,56.20
2022-10-12T01:09:30.760Z,58.55
2022-10-12T01:11:57.910Z,59.78
2022-10-12T01:14:24.093Z,63.03
2022-10-12T01:16:50.272Z,58.88
2022-10-12T01:19:16.455Z,54.28
2022-10-12T01:21:42.634Z,55.33
2022-10-12T01:24:08.814Z,56.65
2022-10-12T01:26:34.998Z,56.28
2022-10-12T01:29:01.189Z,52.03
2022-10-12T01:31:32.237Z,51.70
2022-10-12T01:33:58.872Z,53.22
2022-10-12T01:36:25.059Z,51.72
2022-10-12T01:38:51.260Z,48.65
2022-10-12T01:41:17.452Z,48.45
2022-10-12T01:43:43.666Z,52.55
2022-10-12T01:46:09.861Z,52.38
2022-10-12T01:48:36.061Z,56.20
2022-10-12T01:51:02.253Z,48.00
2022-10-12T01:53:28.760Z,57.80
2022-10-12T01:55:54.944Z,48.55
2022-10-12T01:58:21.155Z,49.65
2022-10-12T02:00:47.456Z,53.90
2022-10-12T02:03:13.675Z,49.85
2022-10-12T02:05:39.859Z,53.92
2022-10-12T02:08:06.053Z,55.65
2022-10-12T02:10:32.236Z,58.60
2022-10-12T02:12:58.424Z,57.20
2022-10-12T02:15:24.666Z,53.53
2022-10-12T02:17:50.864Z,50.58
2022-10-12T02:20:17.056Z,53.55
2022-10-12T02:22:43.234Z,55.78
2022-10-12T02:25:10.962Z,53.92
2022-10-12T02:27:37.437Z,49.88
2022-10-12T02:30:03.834Z,50.67
2022-10-12T02:32:30.019Z,50.90
2022-10-12T02:34:56.236Z,56.20
2022-10-12T02:37:22.423Z,53.50
2022-10-12T02:39:48.675Z,62.30
2022-10-12T02:42:14.855Z,55.65
2022-10-12T02:44:41.236Z,61.75
2022-10-12T02:47:07.438Z,55.33
2022-10-12T02:49:33.614Z,50.58
2022-10-12T02:51:59.804Z,47.58
2022-10-12T02:54:25.991Z,48.78
2022-10-12T02:56:52.176Z,45.42
2022-10-12T02:59:18.660Z,49.70
2022-10-12T03:01:44.900Z,49.45
2022-10-12T03:04:11.312Z,51.88
2022-10-12T03:06:37.504Z,52.75
2022-10-12T03:09:05.104Z,48.75
2022-10-12T03:11:31.367Z,47.90
2022-10-12T03:13:57.556Z,49.17
2022-10-12T03:16:23.780Z,59.67
2022-10-12T03:18:51.317Z,58.92
2022-10-12T03:21:17.563Z,64.60
2022-10-12T03:23:43.746Z,60.38
2022-10-12T03:26:09.925Z,58.70
2022-10-12T03:28:36.149Z,55.47
2022-10-12T03:31:02.344Z,58.38
2022-10-12T03:33:28.566Z,68.20
2022-10-12T03:35:54.779Z,71.43
2022-10-12T03:38:20.984Z,71.90
2022-10-12T03:40:47.176Z,69.60
2022-10-12T03:43:13.414Z,71.13
2022-10-12T03:45:39.601Z,74.30
2022-10-12T03:48:05.792Z,79.68
2022-10-12T03:50:34.667Z,74.78
2022-10-12T03:53:00.863Z,64.05
2022-10-12T03:55:27.076Z,65.30
2022-10-12T03:57:53.256Z,57.20
2022-10-12T04:00:19.441Z,61.97
2022-10-12T04:02:45.631Z,63.15
2022-10-12T04:05:11.815Z,70.40
2022-10-12T04:07:38.208Z,70.07
2022-10-12T04:10:04.727Z,66.10
2022-10-12T04:12:30.902Z,61.10
2022-10-12T04:14:57.133Z,56.63
2022-10-12T04:17:23.472Z,53.22
2022-10-12T04:19:49.728Z,44.22
2022-10-12T04:22:16.162Z,50.33
2022-10-12T04:24:43.612Z,45.30
2022-10-12T04:27:09.882Z,46.00
2022-10-12T04:29:37.096Z,50.40
2022-10-12T04:32:03.290Z,50.63
2022-10-12T04:34:29.474Z,58.17
2022-10-12T04:36:55.659Z,74.50
2022-10-12T04:39:21.847Z,73.10
2022-10-12T04:41:48.034Z,64.85
2022-10-12T04:44:14.267Z,79.63
2022-10-12T04:46:40.480Z,78.90
2022-10-12T04:49:06.684Z,85.60
2022-10-12T04:51:32.987Z,83.53
2022-10-12T04:53:59.227Z,83.03
2022-10-12T04:56:25.410Z,78.32
2022-10-12T04:58:51.591Z,86.60
2022-10-12T05:01:18.136Z,79.45
2022-10-12T05:03:44.631Z,74.88
2022-10-12T05:06:10.871Z,66.10
2022-10-12T05:08:37.070Z,70.47
2022-10-12T05:11:03.250Z,64.40
2022-10-12T05:13:29.909Z,68.70
2022-10-12T05:15:56.109Z,61.60
2022-10-12T05:18:22.332Z,65.20
2022-10-12T05:20:57.038Z,81.15
2022-10-12T05:23:23.567Z,80.55
2022-10-12T05:25:49.747Z,71.28
2022-10-12T05:28:15.978Z,61.53
2022-10-12T05:30:42.195Z,66.20
2022-10-12T05:33:08.569Z,62.17
2022-10-12T05:35:34.855Z,62.60
2022-10-12T05:38:01.402Z,63.42
2022-10-12T05:40:28.700Z,64.43
2022-10-12T05:42:54.891Z,67.25
2022-10-12T05:45:21.354Z,67.20
2022-10-12T05:47:47.580Z,65.65
2022-10-12T05:50:13.762Z,67.68
2022-10-12T05:52:40.359Z,63.85
2022-10-12T05:55:06.896Z,63.75
2022-10-12T05:57:33.126Z,57.67
2022-10-12T05:59:59.333Z,62.42
2022-10-12T06:02:25.555Z,68.68
2022-10-12T06:04:51.744Z,71.45
2022-10-12T06:07:17.970Z,71.25
2022-10-12T06:09:44.751Z,70.78
2022-10-12T06:12:10.952Z,73.00
2022-10-12T06:14:37.143Z,71.60
2022-10-12T06:17:03.357Z,64.55
2022-10-12T06:19:29.548Z,64.35
2022-10-12T06:21:59.251Z,63.38
2022-10-12T06:24:25.434Z,60.45
2022-10-12T06:26:51.631Z,61.03
2022-10-12T06:29:17.802Z,57.85
2022-10-12T06:31:47.643Z,58.95
2022-10-12T06:34:16.741Z,60.90
2022-10-12T06:36:43.000Z,59.70
2022-10-12T06:39:09.193Z,59.92
2022-10-12T06:41:35.524Z,59.35
2022-10-12T06:44:01.711Z,60.33
2022-10-12T06:46:27.928Z,60.60
2022-10-12T06:48:54.134Z,59.90
2022-10-12T06:51:20.375Z,58.88
2022-10-12T06:53:46.565Z,63.00
2022-10-12T06:56:12.791Z,69.25
2022-10-12T06:58:39.039Z,68.80
2022-10-12T07:01:05.259Z,68.85
2022-10-12T07:03:31.433Z,66.20
2022-10-12T07:05:57.634Z,73.13
2022-10-12T07:08:23.818Z,68.60
2022-10-12T07:10:49.991Z,71.85
2022-10-12T07:13:16.185Z,75.90
2022-10-12T07:15:42.371Z,83.10
2022-10-12T07:18:08.570Z,75.35
2022-10-12T07:20:34.742Z,70.47
2022-10-12T07:23:00.918Z,74.60
2022-10-12T07:25:27.112Z,65.68
2022-10-12T07:27:53.358Z,67.68
2022-10-12T07:30:19.618Z,67.00
2022-10-12T07:32:46.950Z,58.08
2022-10-12T07:35:13.205Z,58.38
2022-10-12T07:37:39.699Z,57.13
2022-10-12T07:40:06.122Z,66.70
2022-10-12T07:42:32.370Z,75.63
2022-10-12T07:44:58.619Z,78.25
2022-10-12T07:47:24.806Z,78.88
2022-10-12T07:49:51.084Z,45.47
2022-10-12T07:52:17.528Z,54.35
2022-10-12T07:54:43.819Z,61.03
2022-10-12T07:57:10.094Z,47.35
2022-10-12T07:59:36.347Z,47.92
2022-10-12T08:02:02.731Z,51.78
2022-10-12T08:04:29.026Z,50.58
2022-10-12T08:06:55.490Z,58.17
2022-10-12T08:09:21.727Z,58.70
2022-10-12T08:11:47.998Z,61.50
2022-10-12T08:14:14.712Z,51.78
2022-10-12T08:16:40.993Z,43.00
2022-10-12T08:19:07.255Z,56.63
2022-10-12T08:21:33.500Z,54.22
2022-10-12T08:23:59.758Z,36.28
2022-10-12T08:26:26.023Z,36.17
2022-10-12T08:28:52.728Z,40.00
2022-10-12T08:31:19.380Z,42.03
2022-10-12T08:33:45.711Z,41.35
2022-10-12T08:36:11.950Z,41.78
2022-10-12T08:38:43.333Z,50.33
2022-10-12T08:41:09.647Z,45.63
2022-10-12T08:43:39.024Z,53.42
2022-10-12T08:46:05.276Z,53.22
2022-10-12T08:48:31.541Z,53.10
2022-10-12T08:53:29.087Z,84.05
2022-10-12T08:55:56.768Z,63.17
2022-10-12T08:58:23.016Z,58.38
2022-10-12T09:00:49.308Z,50.97
2022-10-12T09:03:15.579Z,56.70
2022-10-12T09:05:41.890Z,90.65
2022-10-12T09:08:08.168Z,64.03
2022-10-12T09:10:34.507Z,65.85
2022-10-12T09:13:00.799Z,52.03
2022-10-12T09:15:27.060Z,50.55
2022-10-12T09:17:53.306Z,72.45
2022-10-12T09:20:19.743Z,62.15
2022-10-12T09:22:45.987Z,53.58
2022-10-12T09:25:12.511Z,54.78
2022-10-12T09:27:42.924Z,59.88
2022-10-12T09:30:11.285Z,99.75
2022-10-12T09:32:37.540Z,53.15
2022-10-12T09:35:04.208Z,48.10
2022-10-12T09:37:30.468Z,95.57
2022-10-12T09:39:56.741Z,48.53
2022-10-12T09:42:23.012Z,46.47
2022-10-12T09:44:49.374Z,45.78
2022-10-12T09:47:15.647Z,50.95
2022-10-12T09:49:41.912Z,57.70
2022-10-12T09:52:08.175Z,44.20
2022-10-12T09:54:34.498Z,50.58
2022-10-12T09:57:00.769Z,67.13
2022-10-12T09:59:27.382Z,47.97
2022-10-12T10:01:53.648Z,45.00
2022-10-12T10:04:20.051Z,47.25
2022-10-12T10:06:46.356Z,55.63
2022-10-12T10:09:12.594Z,55.60
2022-10-12T10:11:39.511Z,46.38
2022-10-12T10:14:05.785Z,47.08
2022-10-12T10:16:32.094Z,71.32
2022-10-12T10:18:58.371Z,75.72
2022-10-12T10:21:24.610Z,82.32
2022-10-12T10:23:51.248Z,51.90
2022-10-12T10:28:44.749Z,70.07
2022-10-12T10:31:11.047Z,88.43
2022-10-12T10:33:37.506Z,63.22
2022-10-12T10:36:04.140Z,44.08
2022-10-12T10:38:30.473Z,46.78
2022-10-12T10:40:57.194Z,50.72
2022-10-12T10:43:23.768Z,52.05
2022-10-12T10:45:50.034Z,49.08
2022-10-12T10:48:16.311Z,53.80
2022-10-12T10:50:42.559Z,66.00
2022-10-12T10:53:08.892Z,65.43
2022-10-12T10:55:35.146Z,57.90
2022-10-12T10:58:01.407Z,49.67
2022-10-12T11:00:43.292Z,50.60
2022-10-12T11:03:09.991Z,43.33
2022-10-12T11:05:36.333Z,58.20
2022-10-12T11:08:02.615Z,55.75
2022-10-12T11:10:29.125Z,59.00
2022-10-12T11:12:55.384Z,57.22
2022-10-12T11:15:21.935Z,52.22
2022-10-12T11:17:48.291Z,59.78
2022-10-12T11:20:17.341Z,58.60
2022-10-12T11:22:46.022Z,69.32
2022-10-12T11:25:12.279Z,69.18
2022-10-12T11:27:38.575Z,92.32
2022-10-12T11:30:11.636Z,128.55
2022-10-12T11:32:37.946Z,139.65
2022-10-12T11:35:04.239Z,124.70
2022-10-12T11:37:30.625Z,129.57
2022-10-12T11:39:56.872Z,143.35
2022-10-12T11:42:23.228Z,123.07
2022-10-12T11:44:49.490Z,136.77
2022-10-12T11:47:15.781Z,95.47
2022-10-12T11:49:42.044Z,88.60
2022-10-12T11:52:08.325Z,120.00
2022-10-12T11:54:34.590Z,97.93
2022-10-12T11:57:00.841Z,98.28
2022-10-12T11:59:27.157Z,106.20
2022-10-12T12:01:53.406Z,124.80
2022-10-12T12:04:50.516Z,107.00
2022-10-12T12:07:07.126Z,90.55
2022-10-12T12:09:33.394Z,98.25
2022-10-12T12:11:59.638Z,164.15
2022-10-12T12:14:25.913Z,153.88
2022-10-12T12:16:52.174Z,167.27
2022-10-12T12:19:18.513Z,138.05
2022-10-12T12:21:44.780Z,175.43
2022-10-12T12:24:11.054Z,137.88
2022-10-12T12:26:37.316Z,151.63
2022-10-12T12:29:03.585Z,133.32
2022-10-12T12:31:30.442Z,137.75
2022-10-12T12:33:56.707Z,121.78
2022-10-12T12:36:22.958Z,117.60
2022-10-12T12:38:49.305Z,97.90
2022-10-12T12:41:15.611Z,122.78
2022-10-12T12:43:41.862Z,128.88
2022-10-12T12:46:08.247Z,131.43
2022-10-12T12:48:34.527Z,124.45
2022-10-12T12:51:00.919Z,132.93
2022-10-12T12:53:27.192Z,172.07
2022-10-12T12:55:53.469Z,149.35
2022-10-12T12:58:19.878Z,119.97
2022-10-12T13:03:18.970Z,110.85
2022-10-12T13:05:45.244Z,204.38
2022-10-12T13:08:11.522Z,122.35
2022-10-12T13:10:37.782Z,104.68
2022-10-12T13:13:04.507Z,133.65
2022-10-12T13:15:30.753Z,104.45
2022-10-12T13:17:57.649Z,113.00
2022-10-12T13:20:23.932Z,131.45
2022-10-12T13:22:50.398Z,94.75
2022-10-12T13:25:16.775Z,107.47
2022-10-12T13:27:43.033Z,138.77
2022-10-12T13:30:09.341Z,103.55
2022-10-12T13:32:35.610Z,107.22
2022-10-12T13:35:02.367Z,111.78
2022-10-12T13:37:28.635Z,138.23
2022-10-12T13:39:56.189Z,111.32
2022-10-12T13:42:22.453Z,107.47
2022-10-12T13:44:48.759Z,111.65
2022-10-12T13:47:15.060Z,107.53
2022-10-12T13:49:41.324Z,116.68
2022-10-12T13:52:07.590Z,95.43
2022-10-12T13:54:33.859Z,90.43
2022-10-12T13:57:00.197Z,87.50
2022-10-12T13:59:26.595Z,80.18
2022-10-12T14:01:52.848Z,75.38
2022-10-12T14:04:19.158Z,83.50
2022-10-12T14:06:45.426Z,87.53
2022-10-12T14:09:11.699Z,88.90
2022-10-12T14:11:37.980Z,90.13
2022-10-12T14:14:04.354Z,118.72
2022-10-12T14:16:30.719Z,88.18
2022-10-12T14:18:56.993Z,96.97
2022-10-12T14:21:23.573Z,100.20
2022-10-12T14:23:49.877Z,114.20
2022-10-12T14:26:16.191Z,115.18
2022-10-12T14:28:42.561Z,126.50
2022-10-12T14:31:08.852Z,131.18
2022-10-12T14:33:35.128Z,143.75
2022-10-12T14:36:01.397Z,138.15
2022-10-12T14:38:27.651Z,138.73
2022-10-12T14:40:53.911Z,148.50
2022-10-12T14:43:20.479Z,150.38
2022-10-12T14:45:46.751Z,142.18
2022-10-12T14:48:13.006Z,148.82
2022-10-12T14:50:39.268Z,137.65
2022-10-12T14:53:06.541Z,117.72
2022-10-12T14:55:32.860Z,134.32
2022-10-12T14:57:59.676Z,108.53
2022-10-12T15:00:25.938Z,91.63
2022-10-12T15:02:52.194Z,91.00
2022-10-12T15:05:18.611Z,95.70
2022-10-12T15:07:46.805Z,110.60
2022-10-12T15:10:13.681Z,129.18
2022-10-12T15:12:40.015Z,137.27
2022-10-12T15:15:06.309Z,155.93
2022-10-12T15:17:32.590Z,160.13
2022-10-12T15:19:58.861Z,111.15
2022-10-12T15:22:25.153Z,107.25
2022-10-12T15:24:51.411Z,78.57
2022-10-12T15:27:17.668Z,104.85
2022-10-12T15:29:43.957Z,228.88
2022-10-12T15:32:10.223Z,197.25
2022-10-12T15:34:36.475Z,208.68
2022-10-12T15:37:06.562Z,199.80
2022-10-12T15:39:35.212Z,219.07
2022-10-12T15:42:01.475Z,236.10
2022-10-12T15:44:27.735Z,209.80
2022-10-12T15:46:53.986Z,166.63
2022-10-12T15:49:21.771Z,148.55
2022-10-12T15:51:48.043Z,121.78
2022-10-12T15:54:14.328Z,122.93
2022-10-12T15:56:40.597Z,113.07
2022-10-12T15:59:06.862Z,88.82
2022-10-12T16:01:33.144Z,72.55
2022-10-12T16:03:59.415Z,73.03
2022-10-12T16:06:29.319Z,81.78
2022-10-12T16:08:55.604Z,79.45
2022-10-12T16:11:21.909Z,90.55
2022-10-12T16:13:55.449Z,101.95
2022-10-12T16:16:22.675Z,134.70
2022-10-12T16:18:48.964Z,128.48
2022-10-12T16:21:15.243Z,141.77
2022-10-12T16:23:41.532Z,146.52
2022-10-12T16:26:07.832Z,143.02
2022-10-12T16:28:34.130Z,138.82
2022-10-12T16:31:00.446Z,143.43
2022-10-12T16:33:30.113Z,132.10
2022-10-12T16:35:56.548Z,122.32
2022-10-12T16:38:22.797Z,114.95
2022-10-12T16:40:49.676Z,92.53
2022-10-12T16:43:15.932Z,75.72
2022-10-12T16:45:42.186Z,60.22
2022-10-12T16:48:08.440Z,55.97
2022-10-12T16:50:39.801Z,55.30
2022-10-12T16:53:06.073Z,50.90
2022-10-12T16:55:32.345Z,49.25
2022-10-12T16:57:58.653Z,49.13
2022-10-12T17:00:25.020Z,67.70
2022-10-12T17:02:55.272Z,90.97
2022-10-12T17:05:23.618Z,92.05
2022-10-12T17:07:49.876Z,99.07
2022-10-12T17:10:16.196Z,97.85
2022-10-12T17:12:42.454Z,76.15
2022-10-12T17:15:08.711Z,75.60
2022-10-12T17:17:35.014Z,58.55
2022-10-12T17:22:28.883Z,47.78
2022-10-12T17:24:55.152Z,52.85
2022-10-12T17:27:21.418Z,70.25
2022-10-12T17:29:47.743Z,69.95
2022-10-12T17:32:14.313Z,54.75
2022-10-12T17:34:40.891Z,48.10
2022-10-12T17:37:07.174Z,44.58
2022-10-12T17:39:33.437Z,47.42
2022-10-12T17:41:59.707Z,55.17
2022-10-12T17:44:26.071Z,49.08
2022-10-12T17:46:52.323Z,45.70
2022-10-12T17:49:23.523Z,50.20
2022-10-12T17:51:51.035Z,46.85
2022-10-12T17:54:17.286Z,45.17
2022-10-12T17:56:43.544Z,65.45
2022-10-12T17:59:09.931Z,68.43
2022-10-12T18:01:36.219Z,69.65
2022-10-12T18:04:02.527Z,58.35
2022-10-12T18:06:29.014Z,51.72
2022-10-12T18:08:56.560Z,53.10
2022-10-12T18:11:22.818Z,46.17
2022-10-12T18:13:49.078Z,61.97
2022-10-12T18:16:15.321Z,76.47
2022-10-12T18:18:41.927Z,74.72
2022-10-12T18:21:08.200Z,58.90
2022-10-12T18:23:34.446Z,49.50
2022-10-12T18:26:00.702Z,57.53
2022-10-12T18:28:27.004Z,53.13
2022-10-12T18:30:53.313Z,51.47
2022-10-12T18:33:19.567Z,52.00
2022-10-12T18:35:45.849Z,54.45
2022-10-12T18:38:12.097Z,62.60
2022-10-12T18:40:41.987Z,57.72
2022-10-12T18:43:08.694Z,59.13
2022-10-12T18:45:34.972Z,54.95
2022-10-12T18:48:01.214Z,55.13
2022-10-12T18:50:27.467Z,53.13
2022-10-12T18:52:53.719Z,49.40
2022-10-12T18:55:19.974Z,46.97
2022-10-12T18:57:46.226Z,49.50
2022-10-12T19:00:12.481Z,59.95
2022-10-12T19:02:38.764Z,49.88
2022-10-12T19:05:05.033Z,46.13
2022-10-12T19:07:31.380Z,47.35
2022-10-12T19:09:57.687Z,44.55
2022-10-12T19:12:23.938Z,63.22
2022-10-12T19:14:50.196Z,68.85
2022-10-12T19:17:16.457Z,66.65
2022-10-12T19:19:42.727Z,74.78
2022-10-12T19:22:08.970Z,57.28
2022-10-12T19:24:35.224Z,54.60
2022-10-12T19:27:01.487Z,47.88
2022-10-12T19:29:27.731Z,67.40
2022-10-12T19:31:53.981Z,92.72
2022-10-12T19:34:20.245Z,99.20
2022-10-12T19:36:46.490Z,88.60
2022-10-12T19:39:12.743Z,79.88
2022-10-12T19:41:39.001Z,62.38
2022-10-12T19:44:05.257Z,57.42
2022-10-12T19:46:31.716Z,58.47
2022-10-12T19:48:57.977Z,72.85
2022-10-12T19:51:24.309Z,75.75
2022-10-12T19:53:50.555Z,78.03
2022-10-12T19:56:16.816Z,73.35
2022-10-12T19:58:43.077Z,62.60
2022-10-12T20:01:09.440Z,65.05
2022-10-12T20:03:35.954Z,60.75
2022-10-12T20:06:05.956Z,62.22
2022-10-12T20:08:32.912Z,57.30
2022-10-12T20:10:59.181Z,57.35
2022-10-12T20:13:25.505Z,53.92
2022-10-12T20:15:51.753Z,51.80
2022-10-12T20:18:17.994Z,50.10
2022-10-12T20:20:44.244Z,52.17
2022-10-12T20:23:10.517Z,51.85
2022-10-12T20:25:36.795Z,47.83
2022-10-12T20:28:03.995Z,48.17
2022-10-12T20:30:30.190Z,59.47
2022-10-12T20:32:56.584Z,55.45
2022-10-12T20:35:22.830Z,50.90
2022-10-12T20:37:49.073Z,53.47
2022-10-12T20:40:15.327Z,56.15
2022-10-12T20:42:41.587Z,71.05
2022-10-12T20:45:09.428Z,71.88
2022-10-12T20:47:35.674Z,65.78
2022-10-12T20:50:02.163Z,61.50
2022-10-12T20:52:28.457Z,59.80
2022-10-12T20:54:54.747Z,58.95
2022-10-12T20:57:21.011Z,59.53
2022-10-12T20:59:48.902Z,58.70
2022-10-12T21:02:15.577Z,57.65
2022-10-12T21:04:42.296Z,54.58
2022-10-12T21:07:08.564Z,65.22
2022-10-12T21:09:34.820Z,65.18
2022-10-12T21:12:01.080Z,58.90
2022-10-12T21:14:27.322Z,63.80
2022-10-12T21:16:53.571Z,65.40
2022-10-12T21:19:19.816Z,70.65
2022-10-12T21:21:49.074Z,76.50
2022-10-12T21:24:15.387Z,89.38
2022-10-12T21:26:41.661Z,74.93
2022-10-12T21:29:07.908Z,75.80
2022-10-12T21:31:34.189Z,64.00
2022-10-12T21:34:01.285Z,59.20
2022-10-12T21:36:27.527Z,54.73
2022-10-12T21:38:53.799Z,57.08
2022-10-12T21:41:20.165Z,57.13
2022-10-12T21:43:46.451Z,68.28
2022-10-12T21:46:12.696Z,60.35
2022-10-12T21:48:38.963Z,77.35
2022-10-12T21:51:05.514Z,69.50
2022-10-12T21:53:31.825Z,79.70
2022-10-12T21:55:58.080Z,89.80
2022-10-12T21:58:24.326Z,83.07
2022-10-12T22:00:50.617Z,81.65
2022-10-12T22:03:17.034Z,75.05
2022-10-12T22:05:43.290Z,79.90
2022-10-12T22:08:09.576Z,78.35
2022-10-12T22:10:36.099Z,82.13
2022-10-12T22:13:02.346Z,76.68
2022-10-12T22:15:28.621Z,69.05
2022-10-12T22:17:54.880Z,64.35
2022-10-12T22:20:21.169Z,73.75
2022-10-12T22:22:47.425Z,83.53
2022-10-12T22:25:13.817Z,80.93
2022-10-12T22:27:40.074Z,86.40
2022-10-12T22:30:06.357Z,73.70
2022-10-12T22:32:32.594Z,73.85
2022-10-12T22:34:59.085Z,85.45
2022-10-12T22:37:25.353Z,69.78
2022-10-12T22:39:51.691Z,65.80
2022-10-12T22:42:18.195Z,64.00
2022-10-12T22:44:44.703Z,62.78
2022-10-12T22:47:10.986Z,58.92
2022-10-12T22:49:37.258Z,52.22
2022-10-12T22:52:03.510Z,53.90
2022-10-12T22:54:29.788Z,50.47
2022-10-12T22:56:56.088Z,51.67
2022-10-12T22:59:22.383Z,45.95
2022-10-12T23:01:48.717Z,49.47
2022-10-12T23:04:14.998Z,49.35
2022-10-12T23:06:41.253Z,48.63
2022-10-12T23:09:07.521Z,52.10
2022-10-12T23:11:33.971Z,51.88
2022-10-12T23:14:00.268Z,51.00
2022-10-12T23:16:26.561Z,53.67
2022-10-12T23:18:58.051Z,54.53
2022-10-12T23:21:25.436Z,56.15
2022-10-12T23:23:51.682Z,62.95
2022-10-12T23:26:17.948Z,51.88
2022-10-12T23:28:44.284Z,56.78
2022-10-12T23:31:10.645Z,51.42
2022-10-12T23:33:36.943Z,50.22
2022-10-12T23:36:03.205Z,50.15
2022-10-12T23:38:29.460Z,52.17
2022-10-12T23:40:58.751Z,52.38
2022-10-12T23:43:25.994Z,50.97
2022-10-12T23:45:52.372Z,56.47
2022-10-12T23:48:18.621Z,59.97
2022-10-12T23:50:46.423Z,58.35
2022-10-12T23:53:12.678Z,61.88
2022-10-12T23:55:38.955Z,56.90
2022-10-12T23:58:05.194Z,56.00
